createdAt,value
2019-03-21T00:01:09.197Z,2.45
2019-03-21T00:07:04.195Z,2.79
2019-03-21T00:12:59.181Z,2.7
2019-03-21T00:18:54.149Z,3.03
2019-03-21T00:24:49.155Z,3.32
2019-03-21T00:30:44.156Z,4.04
2019-03-21T00:36:39.167Z,3.51
2019-03-21T00:42:34.156Z,3.52
2019-03-21T00:48:29.181Z,3.84
2019-03-21T00:54:24.190Z,3.84
2019-03-21T01:00:19.188Z,3.22
2019-03-21T01:06:14.249Z,3.62
2019-03-21T01:12:09.226Z,2.83
2019-03-21T01:18:04.221Z,3.29
2019-03-21T01:23:59.205Z,3.9
2019-03-21T01:29:54.192Z,4
2019-03-21T01:35:49.239Z,3.82
2019-03-21T01:41:44.232Z,3.51
2019-03-21T01:47:39.228Z,4.17
2019-03-21T01:53:34.228Z,4.12
2019-03-21T01:59:29.238Z,3.9
2019-03-21T02:05:24.246Z,3.49
2019-03-21T02:11:19.250Z,4.29
2019-03-21T02:17:14.305Z,4.34
2019-03-21T02:23:09.262Z,4.25
2019-03-21T02:29:04.291Z,4.74
2019-03-21T02:34:59.294Z,4.53
2019-03-21T02:40:54.321Z,4.11
2019-03-21T02:46:49.267Z,4.16
2019-03-21T02:52:44.286Z,4.05
2019-03-21T02:58:39.310Z,4.8
2019-03-21T03:04:34.302Z,4.31
2019-03-21T03:10:29.332Z,4.35
2019-03-21T03:16:24.361Z,4.32
2019-03-21T03:22:19.321Z,4.82
2019-03-21T03:28:14.337Z,4.19
2019-03-21T03:34:09.350Z,4.02
2019-03-21T03:40:04.319Z,4.76
2019-03-21T03:45:59.337Z,4.25
2019-03-21T03:51:54.343Z,4.55
2019-03-21T03:57:49.371Z,5.23
2019-03-21T04:03:44.355Z,4.23
2019-03-21T04:09:39.345Z,4.43
2019-03-21T04:15:34.412Z,4.45
2019-03-21T04:21:29.380Z,4.9
2019-03-21T04:27:24.406Z,4.51
2019-03-21T04:33:22.430Z,4.46
2019-03-21T04:39:14.468Z,4.16
2019-03-21T04:45:09.430Z,4.43
2019-03-21T04:51:04.380Z,4.07
2019-03-21T04:56:59.376Z,4.08
2019-03-21T05:02:54.402Z,4.08
2019-03-21T05:08:49.411Z,3.8
2019-03-21T05:14:44.447Z,4.2
2019-03-21T05:20:39.407Z,4.87
2019-03-21T05:26:34.462Z,4.2
2019-03-21T05:32:29.412Z,4.4
2019-03-21T05:38:24.420Z,4.14
2019-03-21T05:44:19.416Z,4.13
2019-03-21T05:50:15.075Z,3.81
2019-03-21T05:56:09.463Z,3.68
2019-03-21T06:02:04.462Z,3.96
2019-03-21T06:07:59.484Z,3.87
2019-03-21T06:13:54.445Z,4.45
2019-03-21T06:19:49.498Z,4.21
2019-03-21T06:25:44.447Z,4.02
2019-03-21T06:31:39.488Z,4.06
2019-03-21T06:37:34.471Z,3.72
2019-03-21T06:43:29.497Z,4.61
2019-03-21T06:49:24.499Z,4.7
2019-03-21T06:55:19.475Z,4.11
2019-03-21T07:01:14.535Z,4.03
2019-03-21T07:07:09.479Z,4.73
2019-03-21T07:13:04.547Z,5.14
2019-03-21T07:18:59.493Z,3.75
2019-03-21T07:24:54.513Z,4.21
2019-03-21T07:30:49.504Z,4.03
2019-03-21T07:36:44.543Z,3.73
2019-03-21T07:42:39.578Z,4.48
2019-03-21T07:48:34.547Z,4.18
2019-03-21T07:54:29.538Z,4.17
2019-03-21T08:00:24.538Z,3.77
2019-03-21T08:06:19.546Z,4.38
2019-03-21T08:12:14.562Z,3.58
2019-03-21T08:18:09.574Z,3.79
2019-03-21T08:24:04.573Z,3.66
2019-03-21T08:29:59.567Z,3.66
2019-03-21T08:35:54.578Z,4.11
2019-03-21T08:41:49.551Z,3.55
2019-03-21T08:47:44.576Z,3.98
2019-03-21T08:53:39.570Z,3.88
2019-03-21T08:59:34.588Z,3.56
2019-03-21T09:05:29.623Z,3.69
2019-03-21T09:11:24.604Z,3.92
2019-03-21T09:17:19.654Z,4.56
2019-03-21T09:23:14.618Z,3.71
2019-03-21T09:29:09.632Z,3.89
2019-03-21T09:35:04.626Z,4.45
2019-03-21T09:40:59.645Z,3.91
2019-03-21T09:46:54.646Z,3.91
2019-03-21T09:52:49.626Z,3.48
2019-03-21T09:58:44.641Z,3.43
2019-03-21T10:04:39.672Z,3.61
2019-03-21T10:10:34.673Z,4.2
2019-03-21T10:16:29.640Z,4.15
2019-03-21T10:22:24.690Z,3.97
2019-03-21T10:28:19.675Z,3.46
2019-03-21T10:34:14.716Z,3.89
2019-03-21T10:40:09.684Z,3.68
2019-03-21T10:46:04.680Z,3.71
2019-03-21T10:51:59.721Z,3.32
2019-03-21T10:57:54.718Z,3.52
2019-03-21T11:03:49.731Z,3.51
2019-03-21T11:09:44.782Z,3.31
2019-03-21T11:15:39.713Z,3.54
2019-03-21T11:21:34.761Z,3.78
2019-03-21T11:27:29.727Z,3.95
2019-03-21T11:33:24.756Z,4.16
2019-03-21T11:39:19.731Z,3.68
2019-03-21T11:45:15.157Z,4.13
2019-03-21T11:51:09.774Z,4.37
2019-03-21T11:57:04.760Z,3.88
2019-03-21T12:02:59.896Z,3.9
2019-03-21T12:08:54.803Z,4.43
2019-03-21T12:14:49.773Z,3.71
2019-03-21T12:20:44.802Z,4.4
2019-03-21T12:26:39.773Z,5.14
2019-03-21T12:32:34.788Z,4.97
2019-03-21T12:38:29.798Z,4.13
2019-03-21T12:44:24.808Z,4.37
2019-03-21T12:50:19.801Z,4.68
2019-03-21T12:56:14.854Z,4.17
2019-03-21T13:02:09.819Z,4.31
2019-03-21T13:08:04.864Z,4.73
2019-03-21T13:13:59.862Z,3.8
2019-03-21T13:19:54.843Z,3.99
2019-03-21T13:25:49.833Z,3.51
2019-03-21T13:31:44.850Z,4.41
2019-03-21T13:37:39.859Z,3.95
2019-03-21T13:43:34.855Z,4.09
2019-03-21T13:49:29.921Z,4.52
2019-03-21T13:55:24.899Z,4.4
2019-03-21T14:01:19.888Z,4.38
2019-03-21T14:07:14.909Z,3.61
2019-03-21T14:13:09.897Z,4.48
2019-03-21T14:19:04.882Z,4.2
2019-03-21T14:24:59.880Z,4.8
2019-03-21T14:30:54.908Z,4.51
2019-03-21T14:36:49.995Z,5.02
2019-03-21T14:42:44.986Z,4.6
2019-03-21T14:48:39.949Z,4.96
2019-03-21T14:54:34.962Z,4.6
2019-03-21T15:00:29.936Z,5.53
2019-03-21T15:06:25.002Z,4.45
2019-03-21T15:12:19.943Z,4.61
2019-03-21T15:18:14.943Z,4.8
2019-03-21T15:24:09.956Z,4.63
2019-03-21T15:30:05.070Z,5.36
2019-03-21T15:35:59.963Z,4.97
2019-03-21T15:41:54.988Z,4.38
2019-03-21T15:47:49.995Z,4.43
2019-03-21T15:53:53.461Z,5.45
2019-03-21T15:59:39.981Z,5.03
2019-03-21T16:05:35.039Z,4.94
2019-03-21T16:11:30.023Z,4.66
2019-03-21T16:17:25.022Z,5.17
2019-03-21T16:23:20.056Z,4.97
2019-03-21T16:29:15.009Z,4.77
2019-03-21T16:35:10.092Z,5.21
2019-03-21T16:41:05.034Z,5
2019-03-21T16:47:00.039Z,5.04
2019-03-21T16:52:55.041Z,5.66
2019-03-21T16:58:50.040Z,5.22
2019-03-21T17:04:45.079Z,4.85
2019-03-21T17:10:40.140Z,5
2019-03-21T17:16:35.142Z,4.88
2019-03-21T17:22:30.070Z,4.65
2019-03-21T17:28:25.078Z,5.34
2019-03-21T17:34:20.103Z,5.09
2019-03-21T17:40:15.096Z,4.71
2019-03-21T17:46:10.111Z,5.52
2019-03-21T17:52:05.086Z,5.36
2019-03-21T17:58:00.145Z,5.25
2019-03-21T18:03:55.132Z,5.05
2019-03-21T18:09:50.128Z,5.96
2019-03-21T18:15:45.129Z,5.04
2019-03-21T18:21:40.124Z,5.98
2019-03-21T18:27:35.138Z,5.3
2019-03-21T18:33:30.161Z,5.54
2019-03-21T18:39:25.128Z,4.8
2019-03-21T18:45:20.157Z,5.64
2019-03-21T18:51:15.173Z,5.45
2019-03-21T18:57:10.157Z,5.79
2019-03-21T19:03:05.148Z,4.76
2019-03-21T19:09:00.194Z,5.16
2019-03-21T19:14:55.210Z,5.5
2019-03-21T19:20:50.224Z,5.62
2019-03-21T19:26:45.212Z,5.2
2019-03-21T19:32:40.181Z,5.79
2019-03-21T19:38:35.191Z,5.41
2019-03-21T19:44:30.253Z,7.87
2019-03-21T19:50:25.227Z,5.19
2019-03-21T19:56:20.201Z,5.25
2019-03-21T20:02:15.270Z,4.71
2019-03-21T20:08:10.242Z,4.75
2019-03-21T20:14:05.220Z,4.8
2019-03-21T20:20:00.358Z,4.86
2019-03-21T20:25:55.264Z,4.53
2019-03-21T20:31:50.227Z,4.61
2019-03-21T20:37:45.317Z,5.13
2019-03-21T20:43:40.308Z,4.4
2019-03-21T20:49:35.304Z,5.22
2019-03-21T20:55:30.247Z,5.65
2019-03-21T21:01:25.270Z,4.83
2019-03-21T21:07:20.299Z,4.27
2019-03-21T21:13:15.268Z,4.81
2019-03-21T21:19:10.311Z,5.14
2019-03-21T21:25:05.297Z,4.31
2019-03-21T21:31:00.285Z,5.44
2019-03-21T21:36:55.317Z,4.36
2019-03-21T21:42:50.307Z,4.65
2019-03-21T21:48:45.315Z,5.41
2019-03-21T21:54:40.315Z,4.77
2019-03-21T22:00:35.316Z,4.5
2019-03-21T22:06:30.314Z,4.34
2019-03-21T22:12:25.316Z,4.5
2019-03-21T22:18:20.345Z,4.97
2019-03-21T22:24:15.407Z,4.14
2019-03-21T22:30:10.387Z,5.27
2019-03-21T22:36:06.599Z,4.07
2019-03-21T22:42:00.374Z,4.97
2019-03-21T22:47:55.407Z,4.34
2019-03-21T22:53:50.391Z,5.08
2019-03-21T22:59:45.390Z,4.32
2019-03-21T23:05:40.404Z,4.31
2019-03-21T23:11:35.412Z,5.11
2019-03-21T23:17:30.405Z,4.45
2019-03-21T23:23:25.406Z,4.9
2019-03-21T23:29:20.398Z,4.68
2019-03-21T23:35:15.445Z,3.99
2019-03-21T23:41:10.407Z,3.73
2019-03-21T23:47:05.407Z,4.03
2019-03-21T23:53:00.457Z,4.34
2019-03-21T23:58:55.439Z,4.55
